sensor_id;sensor_type;location;lat;lon;timestamp;P1;P2;P0
46094;PMS5003;31832;50.746;-2.716;2023-12-14T00:01:15;9;9;
46094;PMS5003;31832;50.746;-2.716;2023-12-14T00:03:41;9;8;
46094;PMS5003;31832;50.746;-2.716;2023-12-14T00:06:06;9;8;
46094;PMS5003;31832;50.746;-2.716;2023-12-14T00:08:31;9;8;
46094;PMS5003;31832;50.746;-2.716;2023-12-14T00:10:56;8;7;
46094;PMS5003;31832;50.746;-2.716;2023-12-14T00:13:22;7;7;
46094;PMS5003;31832;50.746;-2.716;2023-12-14T00:15:47;9;6;
46094;PMS5003;31832;50.746;-2.716;2023-12-14T00:18:12;7;6;
46094;PMS5003;31832;50.746;-2.716;2023-12-14T00:20:38;6;6;
46094;PMS5003;31832;50.746;-2.716;2023-12-14T00:23:03;6;6;
46094;PMS5003;31832;50.746;-2.716;2023-12-14T00:25:28;8;5;
46094;PMS5003;31832;50.746;-2.716;2023-12-14T00:27:53;7;7;
46094;PMS5003;31832;50.746;-2.716;2023-12-14T00:30:19;7;6;
46094;PMS5003;31832;50.746;-2.716;2023-12-14T00:32:44;6;5;
46094;PMS5003;31832;50.746;-2.716;2023-12-14T00:35:10;7;6;
46094;PMS5003;31832;50.746;-2.716;2023-12-14T00:37:35;8;8;
46094;PMS5003;31832;50.746;-2.716;2023-12-14T00:40:00;7;7;
46094;PMS5003;31832;50.746;-2.716;2023-12-14T00:42:26;7;7;
46094;PMS5003;31832;50.746;-2.716;2023-12-14T00:44:51;7;7;
46094;PMS5003;31832;50.746;-2.716;2023-12-14T00:47:16;6;6;
46094;PMS5003;31832;50.746;-2.716;2023-12-14T00:49:42;8;6;
46094;PMS5003;31832;50.746;-2.716;2023-12-14T00:52:07;7;7;
46094;PMS5003;31832;50.746;-2.716;2023-12-14T00:54:32;7;7;
46094;PMS5003;31832;50.746;-2.716;2023-12-14T00:56:57;7;6;
46094;PMS5003;31832;50.746;-2.716;2023-12-14T00:59:23;10;10;
46094;PMS5003;31832;50.746;-2.716;2023-12-14T01:01:49;10;7;
46094;PMS5003;31832;50.746;-2.716;2023-12-14T01:04:15;10;8;
46094;PMS5003;31832;50.746;-2.716;2023-12-14T01:06:41;6;6;
46094;PMS5003;31832;50.746;-2.716;2023-12-14T01:09:06;7;7;
46094;PMS5003;31832;50.746;-2.716;2023-12-14T01:11:32;5;5;
46094;PMS5003;31832;50.746;-2.716;2023-12-14T01:13:57;8;8;
46094;PMS5003;31832;50.746;-2.716;2023-12-14T01:16:25;7;7;
46094;PMS5003;31832;50.746;-2.716;2023-12-14T01:18:47;9;7;
46094;PMS5003;31832;50.746;-2.716;2023-12-14T01:21:13;9;7;
46094;PMS5003;31832;50.746;-2.716;2023-12-14T01:23:38;9;7;
46094;PMS5003;31832;50.746;-2.716;2023-12-14T01:26:03;9;8;
46094;PMS5003;31832;50.746;-2.716;2023-12-14T01:28:29;5;5;
46094;PMS5003;31832;50.746;-2.716;2023-12-14T01:30:54;7;7;
46094;PMS5003;31832;50.746;-2.716;2023-12-14T01:33:19;7;7;
46094;PMS5003;31832;50.746;-2.716;2023-12-14T01:35:45;8;8;
46094;PMS5003;31832;50.746;-2.716;2023-12-14T01:38:10;7;7;
46094;PMS5003;31832;50.746;-2.716;2023-12-14T01:40:35;5;5;
46094;PMS5003;31832;50.746;-2.716;2023-12-14T01:43:06;7;6;
46094;PMS5003;31832;50.746;-2.716;2023-12-14T01:45:26;8;7;
46094;PMS5003;31832;50.746;-2.716;2023-12-14T01:47:51;8;7;
46094;PMS5003;31832;50.746;-2.716;2023-12-14T01:50:17;8;7;
46094;PMS5003;31832;50.746;-2.716;2023-12-14T01:52:42;8;8;
46094;PMS5003;31832;50.746;-2.716;2023-12-14T01:55:07;8;7;
46094;PMS5003;31832;50.746;-2.716;2023-12-14T01:57:32;7;7;
46094;PMS5003;31832;50.746;-2.716;2023-12-14T01:59:58;9;8;
46094;PMS5003;31832;50.746;-2.716;2023-12-14T02:02:23;10;10;
46094;PMS5003;31832;50.746;-2.716;2023-12-14T02:04:49;9;8;
46094;PMS5003;31832;50.746;-2.716;2023-12-14T02:07:15;9;8;
46094;PMS5003;31832;50.746;-2.716;2023-12-14T02:09:40;7;6;
46094;PMS5003;31832;50.746;-2.716;2023-12-14T02:12:05;8;6;
46094;PMS5003;31832;50.746;-2.716;2023-12-14T02:14:31;8;7;
46094;PMS5003;31832;50.746;-2.716;2023-12-14T02:16:56;8;6;
46094;PMS5003;31832;50.746;-2.716;2023-12-14T02:19:21;10;9;
46094;PMS5003;31832;50.746;-2.716;2023-12-14T02:21:46;7;6;
46094;PMS5003;31832;50.746;-2.716;2023-12-14T02:24:12;8;6;
46094;PMS5003;31832;50.746;-2.716;2023-12-14T02:26:37;12;10;
46094;PMS5003;31832;50.746;-2.716;2023-12-14T02:29:02;8;8;
46094;PMS5003;31832;50.746;-2.716;2023-12-14T02:31:28;12;8;
46094;PMS5003;31832;50.746;-2.716;2023-12-14T02:33:53;12;9;
46094;PMS5003;31832;50.746;-2.716;2023-12-14T02:36:18;7;7;
46094;PMS5003;31832;50.746;-2.716;2023-12-14T02:38:44;7;6;
46094;PMS5003;31832;50.746;-2.716;2023-12-14T02:41:10;7;7;
46094;PMS5003;31832;50.746;-2.716;2023-12-14T02:43:35;6;6;
46094;PMS5003;31832;50.746;-2.716;2023-12-14T02:46:00;5;5;
46094;PMS5003;31832;50.746;-2.716;2023-12-14T02:48:25;8;7;
46094;PMS5003;31832;50.746;-2.716;2023-12-14T02:50:50;7;6;
46094;PMS5003;31832;50.746;-2.716;2023-12-14T02:53:16;10;6;
46094;PMS5003;31832;50.746;-2.716;2023-12-14T02:55:41;6;6;
46094;PMS5003;31832;50.746;-2.716;2023-12-14T02:58:06;5;5;
46094;PMS5003;31832;50.746;-2.716;2023-12-14T03:00:32;7;7;
46094;PMS5003;31832;50.746;-2.716;2023-12-14T03:02:57;6;6;
46094;PMS5003;31832;50.746;-2.716;2023-12-14T03:05:22;5;5;
46094;PMS5003;31832;50.746;-2.716;2023-12-14T03:07:47;7;7;
46094;PMS5003;31832;50.746;-2.716;2023-12-14T03:10:13;7;6;
46094;PMS5003;31832;50.746;-2.716;2023-12-14T03:12:38;9;8;
46094;PMS5003;31832;50.746;-2.716;2023-12-14T03:15:05;11;11;
46094;PMS5003;31832;50.746;-2.716;2023-12-14T03:17:30;11;10;
46094;PMS5003;31832;50.746;-2.716;2023-12-14T03:19:55;12;12;
46094;PMS5003;31832;50.746;-2.716;2023-12-14T03:22:21;8;8;
46094;PMS5003;31832;50.746;-2.716;2023-12-14T03:24:46;7;7;
46094;PMS5003;31832;50.746;-2.716;2023-12-14T03:27:11;12;11;
46094;PMS5003;31832;50.746;-2.716;2023-12-14T03:29:37;17;15;
46094;PMS5003;31832;50.746;-2.716;2023-12-14T03:32:02;22;19;
46094;PMS5003;31832;50.746;-2.716;2023-12-14T03:34:27;23;22;
46094;PMS5003;31832;50.746;-2.716;2023-12-14T03:36:52;21;20;
46094;PMS5003;31832;50.746;-2.716;2023-12-14T03:39:17;19;19;
46094;PMS5003;31832;50.746;-2.716;2023-12-14T03:41:43;21;20;
46094;PMS5003;31832;50.746;-2.716;2023-12-14T03:44:08;16;12;
46094;PMS5003;31832;50.746;-2.716;2023-12-14T03:46:34;11;11;
46094;PMS5003;31832;50.746;-2.716;2023-12-14T03:48:59;10;10;
46094;PMS5003;31832;50.746;-2.716;2023-12-14T03:51:24;9;9;
46094;PMS5003;31832;50.746;-2.716;2023-12-14T03:53:49;14;10;
46094;PMS5003;31832;50.746;-2.716;2023-12-14T03:56:15;11;10;
46094;PMS5003;31832;50.746;-2.716;2023-12-14T03:58:40;8;8;
46094;PMS5003;31832;50.746;-2.716;2023-12-14T04:01:05;9;9;
46094;PMS5003;31832;50.746;-2.716;2023-12-14T04:03:31;7;7;
46094;PMS5003;31832;50.746;-2.716;2023-12-14T04:05:56;10;9;
46094;PMS5003;31832;50.746;-2.716;2023-12-14T04:08:21;12;9;
46094;PMS5003;31832;50.746;-2.716;2023-12-14T04:10:46;7;6;
46094;PMS5003;31832;50.746;-2.716;2023-12-14T04:13:12;6;6;
46094;PMS5003;31832;50.746;-2.716;2023-12-14T04:15:37;7;7;
46094;PMS5003;31832;50.746;-2.716;2023-12-14T04:18:03;7;6;
46094;PMS5003;31832;50.746;-2.716;2023-12-14T04:20:28;5;5;
46094;PMS5003;31832;50.746;-2.716;2023-12-14T04:22:53;6;6;
46094;PMS5003;31832;50.746;-2.716;2023-12-14T04:25:18;7;7;
46094;PMS5003;31832;50.746;-2.716;2023-12-14T04:27:44;8;7;
46094;PMS5003;31832;50.746;-2.716;2023-12-14T04:30:09;9;8;
46094;PMS5003;31832;50.746;-2.716;2023-12-14T04:32:34;8;7;
46094;PMS5003;31832;50.746;-2.716;2023-12-14T04:34:59;10;10;
46094;PMS5003;31832;50.746;-2.716;2023-12-14T04:37:25;7;7;
46094;PMS5003;31832;50.746;-2.716;2023-12-14T04:39:50;7;7;
46094;PMS5003;31832;50.746;-2.716;2023-12-14T04:42:15;8;8;
46094;PMS5003;31832;50.746;-2.716;2023-12-14T04:44:40;6;6;
46094;PMS5003;31832;50.746;-2.716;2023-12-14T04:47:06;8;7;
46094;PMS5003;31832;50.746;-2.716;2023-12-14T04:49:31;7;7;
46094;PMS5003;31832;50.746;-2.716;2023-12-14T04:51:56;9;7;
46094;PMS5003;31832;50.746;-2.716;2023-12-14T04:54:22;8;7;
46094;PMS5003;31832;50.746;-2.716;2023-12-14T04:56:47;9;9;
46094;PMS5003;31832;50.746;-2.716;2023-12-14T04:59:12;7;7;
46094;PMS5003;31832;50.746;-2.716;2023-12-14T05:01:38;5;5;
46094;PMS5003;31832;50.746;-2.716;2023-12-14T05:04:02;6;6;
46094;PMS5003;31832;50.746;-2.716;2023-12-14T05:06:28;8;8;
46094;PMS5003;31832;50.746;-2.716;2023-12-14T05:08:53;6;6;
46094;PMS5003;31832;50.746;-2.716;2023-12-14T05:11:18;7;7;
46094;PMS5003;31832;50.746;-2.716;2023-12-14T05:13:44;8;8;
46094;PMS5003;31832;50.746;-2.716;2023-12-14T05:16:12;6;5;
46094;PMS5003;31832;50.746;-2.716;2023-12-14T05:18:34;6;6;
46094;PMS5003;31832;50.746;-2.716;2023-12-14T05:20:59;7;5;
46094;PMS5003;31832;50.746;-2.716;2023-12-14T05:23:25;7;5;
46094;PMS5003;31832;50.746;-2.716;2023-12-14T05:25:50;7;5;
46094;PMS5003;31832;50.746;-2.716;2023-12-14T05:28:15;7;6;
46094;PMS5003;31832;50.746;-2.716;2023-12-14T05:30:41;7;7;
46094;PMS5003;31832;50.746;-2.716;2023-12-14T05:33:06;8;7;
46094;PMS5003;31832;50.746;-2.716;2023-12-14T05:35:31;7;6;
46094;PMS5003;31832;50.746;-2.716;2023-12-14T05:37:57;8;5;
46094;PMS5003;31832;50.746;-2.716;2023-12-14T05:40:22;6;6;
46094;PMS5003;31832;50.746;-2.716;2023-12-14T05:42:48;9;9;
46094;PMS5003;31832;50.746;-2.716;2023-12-14T05:45:13;10;8;
46094;PMS5003;31832;50.746;-2.716;2023-12-14T05:47:38;5;5;
46094;PMS5003;31832;50.746;-2.716;2023-12-14T05:50:04;8;5;
46094;PMS5003;31832;50.746;-2.716;2023-12-14T05:52:29;5;5;
46094;PMS5003;31832;50.746;-2.716;2023-12-14T05:54:54;7;5;
46094;PMS5003;31832;50.746;-2.716;2023-12-14T05:57:19;6;6;
46094;PMS5003;31832;50.746;-2.716;2023-12-14T05:59:45;11;8;
46094;PMS5003;31832;50.746;-2.716;2023-12-14T06:02:10;11;8;
46094;PMS5003;31832;50.746;-2.716;2023-12-14T06:04:35;10;9;
46094;PMS5003;31832;50.746;-2.716;2023-12-14T06:07:00;8;6;
46094;PMS5003;31832;50.746;-2.716;2023-12-14T06:09:25;9;8;
46094;PMS5003;31832;50.746;-2.716;2023-12-14T06:11:51;7;7;
46094;PMS5003;31832;50.746;-2.716;2023-12-14T06:14:17;8;8;
46094;PMS5003;31832;50.746;-2.716;2023-12-14T06:16:42;10;8;
46094;PMS5003;31832;50.746;-2.716;2023-12-14T06:19:07;11;9;
46094;PMS5003;31832;50.746;-2.716;2023-12-14T06:21:32;7;7;
46094;PMS5003;31832;50.746;-2.716;2023-12-14T06:23:57;12;11;
46094;PMS5003;31832;50.746;-2.716;2023-12-14T06:26:23;9;8;
46094;PMS5003;31832;50.746;-2.716;2023-12-14T06:28:48;8;7;
46094;PMS5003;31832;50.746;-2.716;2023-12-14T06:31:13;10;9;
46094;PMS5003;31832;50.746;-2.716;2023-12-14T06:33:38;8;8;
46094;PMS5003;31832;50.746;-2.716;2023-12-14T06:36:04;7;7;
46094;PMS5003;31832;50.746;-2.716;2023-12-14T06:38:29;12;11;
46094;PMS5003;31832;50.746;-2.716;2023-12-14T06:40:54;9;9;
46094;PMS5003;31832;50.746;-2.716;2023-12-14T06:43:20;10;9;
46094;PMS5003;31832;50.746;-2.716;2023-12-14T06:45:45;8;8;
46094;PMS5003;31832;50.746;-2.716;2023-12-14T06:48:11;9;9;
46094;PMS5003;31832;50.746;-2.716;2023-12-14T06:50:36;8;8;
46094;PMS5003;31832;50.746;-2.716;2023-12-14T06:53:02;8;8;
46094;PMS5003;31832;50.746;-2.716;2023-12-14T06:55:27;6;6;
46094;PMS5003;31832;50.746;-2.716;2023-12-14T06:57:53;15;12;
46094;PMS5003;31832;50.746;-2.716;2023-12-14T07:00:18;21;16;
46094;PMS5003;31832;50.746;-2.716;2023-12-14T07:02:44;12;10;
46094;PMS5003;31832;50.746;-2.716;2023-12-14T07:05:09;10;10;
46094;PMS5003;31832;50.746;-2.716;2023-12-14T07:07:35;12;12;
46094;PMS5003;31832;50.746;-2.716;2023-12-14T07:10:01;12;12;
46094;PMS5003;31832;50.746;-2.716;2023-12-14T07:12:27;12;12;
46094;PMS5003;31832;50.746;-2.716;2023-12-14T07:14:52;15;15;
46094;PMS5003;31832;50.746;-2.716;2023-12-14T07:17:17;19;17;
46094;PMS5003;31832;50.746;-2.716;2023-12-14T07:19:43;21;19;
46094;PMS5003;31832;50.746;-2.716;2023-12-14T07:22:09;18;18;
46094;PMS5003;31832;50.746;-2.716;2023-12-14T07:24:34;12;11;
46094;PMS5003;31832;50.746;-2.716;2023-12-14T07:27:00;15;13;
46094;PMS5003;31832;50.746;-2.716;2023-12-14T07:29:25;16;13;
46094;PMS5003;31832;50.746;-2.716;2023-12-14T07:31:50;11;11;
46094;PMS5003;31832;50.746;-2.716;2023-12-14T07:34:15;12;10;
46094;PMS5003;31832;50.746;-2.716;2023-12-14T07:36:41;9;9;
46094;PMS5003;31832;50.746;-2.716;2023-12-14T07:39:06;9;7;
46094;PMS5003;31832;50.746;-2.716;2023-12-14T07:41:31;5;5;
46094;PMS5003;31832;50.746;-2.716;2023-12-14T07:43:57;12;10;
46094;PMS5003;31832;50.746;-2.716;2023-12-14T07:46:22;7;7;
46094;PMS5003;31832;50.746;-2.716;2023-12-14T07:48:48;6;4;
46094;PMS5003;31832;50.746;-2.716;2023-12-14T07:51:14;5;5;
46094;PMS5003;31832;50.746;-2.716;2023-12-14T07:53:39;7;4;
46094;PMS5003;31832;50.746;-2.716;2023-12-14T07:56:05;5;5;
46094;PMS5003;31832;50.746;-2.716;2023-12-14T07:58:30;7;5;
46094;PMS5003;31832;50.746;-2.716;2023-12-14T08:00:55;8;7;
46094;PMS5003;31832;50.746;-2.716;2023-12-14T08:03:21;6;6;
46094;PMS5003;31832;50.746;-2.716;2023-12-14T08:05:46;5;5;
46094;PMS5003;31832;50.746;-2.716;2023-12-14T08:08:12;6;5;
46094;PMS5003;31832;50.746;-2.716;2023-12-14T08:10:37;5;5;
46094;PMS5003;31832;50.746;-2.716;2023-12-14T08:13:02;5;3;
46094;PMS5003;31832;50.746;-2.716;2023-12-14T08:15:27;6;4;
46094;PMS5003;31832;50.746;-2.716;2023-12-14T08:17:53;5;5;
46094;PMS5003;31832;50.746;-2.716;2023-12-14T08:20:18;5;5;
46094;PMS5003;31832;50.746;-2.716;2023-12-14T08:22:43;6;6;
46094;PMS5003;31832;50.746;-2.716;2023-12-14T08:25:08;4;4;
46094;PMS5003;31832;50.746;-2.716;2023-12-14T08:27:34;6;5;
46094;PMS5003;31832;50.746;-2.716;2023-12-14T08:29:59;8;6;
46094;PMS5003;31832;50.746;-2.716;2023-12-14T08:32:24;6;5;
46094;PMS5003;31832;50.746;-2.716;2023-12-14T08:34:49;6;4;
46094;PMS5003;31832;50.746;-2.716;2023-12-14T08:37:14;4;4;
46094;PMS5003;31832;50.746;-2.716;2023-12-14T08:39:40;4;4;
46094;PMS5003;31832;50.746;-2.716;2023-12-14T08:42:06;3;3;
46094;PMS5003;31832;50.746;-2.716;2023-12-14T08:44:31;4;4;
46094;PMS5003;31832;50.746;-2.716;2023-12-14T08:46:56;2;2;
46094;PMS5003;31832;50.746;-2.716;2023-12-14T08:49:21;2;2;
46094;PMS5003;31832;50.746;-2.716;2023-12-14T08:51:46;3;2;
46094;PMS5003;31832;50.746;-2.716;2023-12-14T08:54:12;2;2;
46094;PMS5003;31832;50.746;-2.716;2023-12-14T08:56:37;2;2;
46094;PMS5003;31832;50.746;-2.716;2023-12-14T08:59:02;2;2;
46094;PMS5003;31832;50.746;-2.716;2023-12-14T09:01:27;4;4;
46094;PMS5003;31832;50.746;-2.716;2023-12-14T09:03:52;3;2;
46094;PMS5003;31832;50.746;-2.716;2023-12-14T09:06:17;4;4;
46094;PMS5003;31832;50.746;-2.716;2023-12-14T09:08:43;3;3;
46094;PMS5003;31832;50.746;-2.716;2023-12-14T09:11:08;2;2;
46094;PMS5003;31832;50.746;-2.716;2023-12-14T09:13:33;3;3;
46094;PMS5003;31832;50.746;-2.716;2023-12-14T09:15:58;1;1;
46094;PMS5003;31832;50.746;-2.716;2023-12-14T09:18:23;3;1;
46094;PMS5003;31832;50.746;-2.716;2023-12-14T09:20:49;0;0;
46094;PMS5003;31832;50.746;-2.716;2023-12-14T09:23:14;4;2;
46094;PMS5003;31832;50.746;-2.716;2023-12-14T09:25:39;2;1;
46094;PMS5003;31832;50.746;-2.716;2023-12-14T09:28:04;0;0;
46094;PMS5003;31832;50.746;-2.716;2023-12-14T09:30:29;2;2;
46094;PMS5003;31832;50.746;-2.716;2023-12-14T09:32:55;11;7;
46094;PMS5003;31832;50.746;-2.716;2023-12-14T09:35:20;8;7;
46094;PMS5003;31832;50.746;-2.716;2023-12-14T09:37:46;6;6;
46094;PMS5003;31832;50.746;-2.716;2023-12-14T09:40:11;6;4;
46094;PMS5003;31832;50.746;-2.716;2023-12-14T09:42:36;5;3;
46094;PMS5003;31832;50.746;-2.716;2023-12-14T09:45:01;3;3;
46094;PMS5003;31832;50.746;-2.716;2023-12-14T09:47:27;8;8;
46094;PMS5003;31832;50.746;-2.716;2023-12-14T09:49:52;3;3;
46094;PMS5003;31832;50.746;-2.716;2023-12-14T09:52:18;1;1;
46094;PMS5003;31832;50.746;-2.716;2023-12-14T09:54:43;4;4;
46094;PMS5003;31832;50.746;-2.716;2023-12-14T09:57:08;5;4;
46094;PMS5003;31832;50.746;-2.716;2023-12-14T09:59:33;6;6;
46094;PMS5003;31832;50.746;-2.716;2023-12-14T10:04:23;2;2;
46094;PMS5003;31832;50.746;-2.716;2023-12-14T10:06:49;3;3;
46094;PMS5003;31832;50.746;-2.716;2023-12-14T10:09:14;2;2;
46094;PMS5003;31832;50.746;-2.716;2023-12-14T10:11:39;3;1;
46094;PMS5003;31832;50.746;-2.716;2023-12-14T10:16:30;3;3;
46094;PMS5003;31832;50.746;-2.716;2023-12-14T10:18:55;1;1;
46094;PMS5003;31832;50.746;-2.716;2023-12-14T10:21:21;4;1;
46094;PMS5003;31832;50.746;-2.716;2023-12-14T10:23:45;3;1;
46094;PMS5003;31832;50.746;-2.716;2023-12-14T10:26:11;2;2;
46094;PMS5003;31832;50.746;-2.716;2023-12-14T10:28:36;2;2;
46094;PMS5003;31832;50.746;-2.716;2023-12-14T10:31:01;3;3;
46094;PMS5003;31832;50.746;-2.716;2023-12-14T10:33:26;2;2;
46094;PMS5003;31832;50.746;-2.716;2023-12-14T10:35:51;1;1;
46094;PMS5003;31832;50.746;-2.716;2023-12-14T10:38:17;5;5;
46094;PMS5003;31832;50.746;-2.716;2023-12-14T10:40:42;7;4;
46094;PMS5003;31832;50.746;-2.716;2023-12-14T10:43:08;3;1;
46094;PMS5003;31832;50.746;-2.716;2023-12-14T10:45:33;1;1;
46094;PMS5003;31832;50.746;-2.716;2023-12-14T10:47:58;1;0;
46094;PMS5003;31832;50.746;-2.716;2023-12-14T10:50:24;0;0;
46094;PMS5003;31832;50.746;-2.716;2023-12-14T10:52:49;1;1;
46094;PMS5003;31832;50.746;-2.716;2023-12-14T10:55:27;1;0;
46094;PMS5003;31832;50.746;-2.716;2023-12-14T10:57:39;1;1;
46094;PMS5003;31832;50.746;-2.716;2023-12-14T11:00:05;2;1;
46094;PMS5003;31832;50.746;-2.716;2023-12-14T11:02:29;1;1;
46094;PMS5003;31832;50.746;-2.716;2023-12-14T11:04:55;1;1;
46094;PMS5003;31832;50.746;-2.716;2023-12-14T11:09:45;1;1;
46094;PMS5003;31832;50.746;-2.716;2023-12-14T11:12:10;2;2;
46094;PMS5003;31832;50.746;-2.716;2023-12-14T11:14:35;2;2;
46094;PMS5003;31832;50.746;-2.716;2023-12-14T11:17:03;2;2;
46094;PMS5003;31832;50.746;-2.716;2023-12-14T11:19:28;0;0;
46094;PMS5003;31832;50.746;-2.716;2023-12-14T11:24:16;1;1;
46094;PMS5003;31832;50.746;-2.716;2023-12-14T11:26:42;2;1;
46094;PMS5003;31832;50.746;-2.716;2023-12-14T11:29:07;2;2;
46094;PMS5003;31832;50.746;-2.716;2023-12-14T11:31:32;2;1;
46094;PMS5003;31832;50.746;-2.716;2023-12-14T11:33:58;5;4;
46094;PMS5003;31832;50.746;-2.716;2023-12-14T11:36:23;2;2;
46094;PMS5003;31832;50.746;-2.716;2023-12-14T11:38:48;2;1;
46094;PMS5003;31832;50.746;-2.716;2023-12-14T11:41:13;3;2;
46094;PMS5003;31832;50.746;-2.716;2023-12-14T11:43:39;0;0;
46094;PMS5003;31832;50.746;-2.716;2023-12-14T11:46:04;1;0;
46094;PMS5003;31832;50.746;-2.716;2023-12-14T11:48:29;8;5;
46094;PMS5003;31832;50.746;-2.716;2023-12-14T11:50:54;5;3;
46094;PMS5003;31832;50.746;-2.716;2023-12-14T11:53:20;2;1;
46094;PMS5003;31832;50.746;-2.716;2023-12-14T11:55:45;3;2;
46094;PMS5003;31832;50.746;-2.716;2023-12-14T11:58:11;1;1;
46094;PMS5003;31832;50.746;-2.716;2023-12-14T12:00:35;1;1;
46094;PMS5003;31832;50.746;-2.716;2023-12-14T12:03:07;5;5;
46094;PMS5003;31832;50.746;-2.716;2023-12-14T12:10:16;2;2;
46094;PMS5003;31832;50.746;-2.716;2023-12-14T12:12:41;2;2;
46094;PMS5003;31832;50.746;-2.716;2023-12-14T12:15:06;2;2;
46094;PMS5003;31832;50.746;-2.716;2023-12-14T12:17:32;0;0;
46094;PMS5003;31832;50.746;-2.716;2023-12-14T12:19:57;3;2;
46094;PMS5003;31832;50.746;-2.716;2023-12-14T12:22:22;5;5;
46094;PMS5003;31832;50.746;-2.716;2023-12-14T12:24:48;5;4;
46094;PMS5003;31832;50.746;-2.716;2023-12-14T12:27:13;2;2;
46094;PMS5003;31832;50.746;-2.716;2023-12-14T12:29:38;3;3;
46094;PMS5003;31832;50.746;-2.716;2023-12-14T12:32:03;2;2;
46094;PMS5003;31832;50.746;-2.716;2023-12-14T12:34:28;3;3;
46094;PMS5003;31832;50.746;-2.716;2023-12-14T12:36:54;3;3;
46094;PMS5003;31832;50.746;-2.716;2023-12-14T12:39:18;8;7;
46094;PMS5003;31832;50.746;-2.716;2023-12-14T12:41:44;4;3;
46094;PMS5003;31832;50.746;-2.716;2023-12-14T12:44:09;20;16;
46094;PMS5003;31832;50.746;-2.716;2023-12-14T12:46:35;7;5;
46094;PMS5003;31832;50.746;-2.716;2023-12-14T12:49:00;3;2;
46094;PMS5003;31832;50.746;-2.716;2023-12-14T12:51:25;2;2;
46094;PMS5003;31832;50.746;-2.716;2023-12-14T12:53:50;1;1;
46094;PMS5003;31832;50.746;-2.716;2023-12-14T12:56:15;2;1;
46094;PMS5003;31832;50.746;-2.716;2023-12-14T12:58:40;4;2;
46094;PMS5003;31832;50.746;-2.716;2023-12-14T13:01:06;7;5;
46094;PMS5003;31832;50.746;-2.716;2023-12-14T13:03:31;2;2;
46094;PMS5003;31832;50.746;-2.716;2023-12-14T13:05:56;2;2;
46094;PMS5003;31832;50.746;-2.716;2023-12-14T13:08:21;2;2;
46094;PMS5003;31832;50.746;-2.716;2023-12-14T13:10:46;3;2;
46094;PMS5003;31832;50.746;-2.716;2023-12-14T13:13:11;3;3;
46094;PMS5003;31832;50.746;-2.716;2023-12-14T13:15:37;2;2;
46094;PMS5003;31832;50.746;-2.716;2023-12-14T13:18:02;3;3;
46094;PMS5003;31832;50.746;-2.716;2023-12-14T13:20:27;4;3;
46094;PMS5003;31832;50.746;-2.716;2023-12-14T13:22:52;2;2;
46094;PMS5003;31832;50.746;-2.716;2023-12-14T13:25:17;4;4;
46094;PMS5003;31832;50.746;-2.716;2023-12-14T13:27:42;1;1;
46094;PMS5003;31832;50.746;-2.716;2023-12-14T13:30:08;3;3;
46094;PMS5003;31832;50.746;-2.716;2023-12-14T13:32:33;2;2;
46094;PMS5003;31832;50.746;-2.716;2023-12-14T13:34:58;2;2;
46094;PMS5003;31832;50.746;-2.716;2023-12-14T13:37:23;4;2;
46094;PMS5003;31832;50.746;-2.716;2023-12-14T13:39:49;4;3;
46094;PMS5003;31832;50.746;-2.716;2023-12-14T13:42:14;3;3;
46094;PMS5003;31832;50.746;-2.716;2023-12-14T13:44:39;6;4;
46094;PMS5003;31832;50.746;-2.716;2023-12-14T13:47:05;4;3;
46094;PMS5003;31832;50.746;-2.716;2023-12-14T13:49:30;2;2;
46094;PMS5003;31832;50.746;-2.716;2023-12-14T13:51:55;2;2;
46094;PMS5003;31832;50.746;-2.716;2023-12-14T13:54:20;1;1;
46094;PMS5003;31832;50.746;-2.716;2023-12-14T13:56:45;2;2;
46094;PMS5003;31832;50.746;-2.716;2023-12-14T13:59:10;2;1;
46094;PMS5003;31832;50.746;-2.716;2023-12-14T14:01:36;1;1;
46094;PMS5003;31832;50.746;-2.716;2023-12-14T14:04:01;3;3;
46094;PMS5003;31832;50.746;-2.716;2023-12-14T14:06:26;5;5;
46094;PMS5003;31832;50.746;-2.716;2023-12-14T14:08:51;2;2;
46094;PMS5003;31832;50.746;-2.716;2023-12-14T14:11:16;2;2;
46094;PMS5003;31832;50.746;-2.716;2023-12-14T14:13:41;3;3;
46094;PMS5003;31832;50.746;-2.716;2023-12-14T14:16:06;6;4;
46094;PMS5003;31832;50.746;-2.716;2023-12-14T14:18:31;2;2;
46094;PMS5003;31832;50.746;-2.716;2023-12-14T14:20:57;5;2;
46094;PMS5003;31832;50.746;-2.716;2023-12-14T14:23:22;4;2;
46094;PMS5003;31832;50.746;-2.716;2023-12-14T14:25:47;5;3;
46094;PMS5003;31832;50.746;-2.716;2023-12-14T14:28:12;3;2;
46094;PMS5003;31832;50.746;-2.716;2023-12-14T14:30:37;4;3;
46094;PMS5003;31832;50.746;-2.716;2023-12-14T14:33:02;5;3;
46094;PMS5003;31832;50.746;-2.716;2023-12-14T14:35:27;4;2;
46094;PMS5003;31832;50.746;-2.716;2023-12-14T14:37:53;1;1;
46094;PMS5003;31832;50.746;-2.716;2023-12-14T14:40:18;6;3;
46094;PMS5003;31832;50.746;-2.716;2023-12-14T14:42:43;1;1;
46094;PMS5003;31832;50.746;-2.716;2023-12-14T14:45:09;5;3;
46094;PMS5003;31832;50.746;-2.716;2023-12-14T14:47:33;2;2;
46094;PMS5003;31832;50.746;-2.716;2023-12-14T14:49:59;2;2;
46094;PMS5003;31832;50.746;-2.716;2023-12-14T14:52:24;2;2;
46094;PMS5003;31832;50.746;-2.716;2023-12-14T14:54:49;5;3;
46094;PMS5003;31832;50.746;-2.716;2023-12-14T14:57:14;3;3;
46094;PMS5003;31832;50.746;-2.716;2023-12-14T14:59:40;4;4;
46094;PMS5003;31832;50.746;-2.716;2023-12-14T15:02:05;4;3;
46094;PMS5003;31832;50.746;-2.716;2023-12-14T15:04:30;7;6;
46094;PMS5003;31832;50.746;-2.716;2023-12-14T15:06:56;5;5;
46094;PMS5003;31832;50.746;-2.716;2023-12-14T15:09:21;5;4;
46094;PMS5003;31832;50.746;-2.716;2023-12-14T15:11:46;7;7;
46094;PMS5003;31832;50.746;-2.716;2023-12-14T15:14:11;9;7;
46094;PMS5003;31832;50.746;-2.716;2023-12-14T15:16:36;4;4;
46094;PMS5003;31832;50.746;-2.716;2023-12-14T15:19:02;13;11;
46094;PMS5003;31832;50.746;-2.716;2023-12-14T15:21:27;9;9;
46094;PMS5003;31832;50.746;-2.716;2023-12-14T15:23:52;4;4;
46094;PMS5003;31832;50.746;-2.716;2023-12-14T15:26:17;4;4;
46094;PMS5003;31832;50.746;-2.716;2023-12-14T15:28:43;14;9;
46094;PMS5003;31832;50.746;-2.716;2023-12-14T15:31:08;8;7;
46094;PMS5003;31832;50.746;-2.716;2023-12-14T15:33:33;10;10;
46094;PMS5003;31832;50.746;-2.716;2023-12-14T15:35:59;13;10;
46094;PMS5003;31832;50.746;-2.716;2023-12-14T15:38:24;13;8;
46094;PMS5003;31832;50.746;-2.716;2023-12-14T15:40:49;2;2;
46094;PMS5003;31832;50.746;-2.716;2023-12-14T15:43:14;5;4;
46094;PMS5003;31832;50.746;-2.716;2023-12-14T15:45:39;3;3;
46094;PMS5003;31832;50.746;-2.716;2023-12-14T15:48:05;4;4;
46094;PMS5003;31832;50.746;-2.716;2023-12-14T15:50:30;3;3;
46094;PMS5003;31832;50.746;-2.716;2023-12-14T15:52:55;2;2;
46094;PMS5003;31832;50.746;-2.716;2023-12-14T15:55:21;4;3;
46094;PMS5003;31832;50.746;-2.716;2023-12-14T15:57:46;5;5;
46094;PMS5003;31832;50.746;-2.716;2023-12-14T16:00:11;3;3;
46094;PMS5003;31832;50.746;-2.716;2023-12-14T16:02:36;5;4;
46094;PMS5003;31832;50.746;-2.716;2023-12-14T16:05:01;4;3;
46094;PMS5003;31832;50.746;-2.716;2023-12-14T16:07:26;0;0;
46094;PMS5003;31832;50.746;-2.716;2023-12-14T16:09:52;3;2;
46094;PMS5003;31832;50.746;-2.716;2023-12-14T16:12:16;3;2;
46094;PMS5003;31832;50.746;-2.716;2023-12-14T16:14:42;2;2;
46094;PMS5003;31832;50.746;-2.716;2023-12-14T16:17:07;1;1;
46094;PMS5003;31832;50.746;-2.716;2023-12-14T16:19:32;4;3;
46094;PMS5003;31832;50.746;-2.716;2023-12-14T16:21:57;3;2;
46094;PMS5003;31832;50.746;-2.716;2023-12-14T16:24:22;4;3;
46094;PMS5003;31832;50.746;-2.716;2023-12-14T16:26:47;4;3;
46094;PMS5003;31832;50.746;-2.716;2023-12-14T16:29:13;4;4;
46094;PMS5003;31832;50.746;-2.716;2023-12-14T16:31:41;1;1;